sensor_id;sensor_type;location;lat;lon;timestamp;pressure;altitude;pressure_sealevel;temperature;humidity
14966;BME280;7577;45.226;5.798;2022-07-23T01:18:24;98023.77;;;27.70;41.00
14966;BME280;7577;45.226;5.798;2022-07-23T01:23:36;98018.58;;;27.65;40.96
14966;BME280;7577;45.226;5.798;2022-07-23T01:26:15;98021.75;;;27.56;41.05
14966;BME280;7577;45.226;5.798;2022-07-23T01:42:44;98028.31;;;27.26;42.69
14966;BME280;7577;45.226;5.798;2022-07-23T01:45:14;98026.72;;;27.29;42.74
14966;BME280;7577;45.226;5.798;2022-07-23T01:47:45;98023.22;;;27.08;43.04
14966;BME280;7577;45.226;5.798;2022-07-23T01:50:17;98022.83;;;27.03;42.93
14966;BME280;7577;45.226;5.798;2022-07-23T01:52:47;98022.02;;;26.95;42.89
14966;BME280;7577;45.226;5.798;2022-07-23T01:57:57;98016.84;;;27.04;42.49
14966;BME280;7577;45.226;5.798;2022-07-23T02:00:28;98006.67;;;27.09;42.80
14966;BME280;7577;45.226;5.798;2022-07-23T02:05:41;97984.95;;;27.19;41.82
14966;BME280;7577;45.226;5.798;2022-07-23T02:08:11;97984.55;;;27.28;42.15
14966;BME280;7577;45.226;5.798;2022-07-23T02:10:43;97986.34;;;27.19;42.62
14966;BME280;7577;45.226;5.798;2022-07-23T02:13:14;97991.94;;;27.19;42.60
14966;BME280;7577;45.226;5.798;2022-07-23T02:15:44;98000.50;;;27.13;43.34
14966;BME280;7577;45.226;5.798;2022-07-23T02:18:14;97997.47;;;27.09;43.73
14966;BME280;7577;45.226;5.798;2022-07-23T02:20:45;97991.27;;;27.06;43.83
14966;BME280;7577;45.226;5.798;2022-07-23T02:23:15;97989.87;;;27.02;43.81
14966;BME280;7577;45.226;5.798;2022-07-23T02:28:26;97985.28;;;27.07;43.73
14966;BME280;7577;45.226;5.798;2022-07-23T02:33:40;97984.53;;;27.17;43.74
14966;BME280;7577;45.226;5.798;2022-07-23T02:36:10;97983.30;;;27.08;43.55
14966;BME280;7577;45.226;5.798;2022-07-23T02:38:41;97985.51;;;27.12;43.15
14966;BME280;7577;45.226;5.798;2022-07-23T02:41:11;97990.34;;;27.22;42.67
14966;BME280;7577;45.226;5.798;2022-07-23T02:43:43;98005.14;;;27.22;44.36
14966;BME280;7577;45.226;5.798;2022-07-23T02:46:13;98012.13;;;27.22;44.26
14966;BME280;7577;45.226;5.798;2022-07-23T02:48:44;98018.28;;;27.18;44.10
14966;BME280;7577;45.226;5.798;2022-07-23T02:51:14;98015.84;;;27.03;44.76
14966;BME280;7577;45.226;5.798;2022-07-23T02:53:44;98025.58;;;26.89;44.87
14966;BME280;7577;45.226;5.798;2022-07-23T02:56:14;98030.11;;;26.77;45.33
14966;BME280;7577;45.226;5.798;2022-07-23T02:58:44;98037.63;;;26.66;45.65
14966;BME280;7577;45.226;5.798;2022-07-23T03:01:14;98033.36;;;26.55;45.76
14966;BME280;7577;45.226;5.798;2022-07-23T03:06:29;98031.48;;;26.73;45.21
14966;BME280;7577;45.226;5.798;2022-07-23T03:09:00;98035.84;;;26.64;45.21
14966;BME280;7577;45.226;5.798;2022-07-23T03:11:30;98039.66;;;26.69;45.44
14966;BME280;7577;45.226;5.798;2022-07-23T03:14:01;98051.27;;;26.78;45.01
14966;BME280;7577;45.226;5.798;2022-07-23T03:16:31;98060.91;;;26.91;45.22
14966;BME280;7577;45.226;5.798;2022-07-23T03:19:01;98068.91;;;26.92;44.88
14966;BME280;7577;45.226;5.798;2022-07-23T03:21:31;98075.84;;;26.82;45.98
14966;BME280;7577;45.226;5.798;2022-07-23T03:24:01;98077.81;;;26.78;46.28
14966;BME280;7577;45.226;5.798;2022-07-23T03:26:31;98070.56;;;26.63;45.63
14966;BME280;7577;45.226;5.798;2022-07-23T03:29:01;98071.42;;;26.77;46.13
14966;BME280;7577;45.226;5.798;2022-07-23T03:34:19;98069.58;;;26.68;46.69
14966;BME280;7577;45.226;5.798;2022-07-23T03:36:49;98072.34;;;26.61;45.66
14966;BME280;7577;45.226;5.798;2022-07-23T03:39:20;98071.05;;;26.48;46.66
14966;BME280;7577;45.226;5.798;2022-07-23T03:41:50;98079.73;;;26.36;46.02
14966;BME280;7577;45.226;5.798;2022-07-23T03:44:20;98066.98;;;26.39;46.22
14966;BME280;7577;45.226;5.798;2022-07-23T03:46:50;98061.23;;;26.45;46.48
14966;BME280;7577;45.226;5.798;2022-07-23T03:49:20;98063.86;;;26.47;46.90
14966;BME280;7577;45.226;5.798;2022-07-23T03:51:50;98058.86;;;26.47;47.00
14966;BME280;7577;45.226;5.798;2022-07-23T03:54:20;98066.28;;;26.52;46.97
14966;BME280;7577;45.226;5.798;2022-07-23T03:56:50;98068.25;;;26.48;48.02
14966;BME280;7577;45.226;5.798;2022-07-23T04:02:01;98058.14;;;26.57;47.37
14966;BME280;7577;45.226;5.798;2022-07-23T04:04:31;98060.98;;;26.64;46.41
14966;BME280;7577;45.226;5.798;2022-07-23T04:07:01;98061.77;;;26.64;46.48
14966;BME280;7577;45.226;5.798;2022-07-23T04:09:32;98057.23;;;26.73;45.67
14966;BME280;7577;45.226;5.798;2022-07-23T04:12:02;98056.67;;;26.80;45.83
14966;BME280;7577;45.226;5.798;2022-07-23T04:14:32;98055.52;;;26.88;45.26
14966;BME280;7577;45.226;5.798;2022-07-23T04:17:03;98060.33;;;26.91;45.61
14966;BME280;7577;45.226;5.798;2022-07-23T04:19:33;98081.49;;;26.96;45.61
14966;BME280;7577;45.226;5.798;2022-07-23T04:22:04;98090.66;;;26.93;45.46
14966;BME280;7577;45.226;5.798;2022-07-23T04:24:34;98094.12;;;27.03;45.29
14966;BME280;7577;45.226;5.798;2022-07-23T04:27:05;98095.90;;;27.01;45.19
14966;BME280;7577;45.226;5.798;2022-07-23T04:29:35;98089.69;;;27.02;45.09
14966;BME280;7577;45.226;5.798;2022-07-23T04:32:06;98099.67;;;26.99;45.37
14966;BME280;7577;45.226;5.798;2022-07-23T04:34:36;98106.31;;;27.04;45.73
14966;BME280;7577;45.226;5.798;2022-07-23T04:37:06;98105.88;;;27.02;45.95
14966;BME280;7577;45.226;5.798;2022-07-23T04:39:36;98109.50;;;27.10;45.62
14966;BME280;7577;45.226;5.798;2022-07-23T04:42:07;98106.06;;;26.96;45.97
14966;BME280;7577;45.226;5.798;2022-07-23T04:44:37;98100.09;;;27.01;46.28
14966;BME280;7577;45.226;5.798;2022-07-23T04:47:07;98099.70;;;27.03;46.45
14966;BME280;7577;45.226;5.798;2022-07-23T04:49:37;98107.91;;;27.12;46.84
14966;BME280;7577;45.226;5.798;2022-07-23T04:52:07;98118.74;;;27.17;46.91
14966;BME280;7577;45.226;5.798;2022-07-23T04:54:37;98126.52;;;27.18;47.52
14966;BME280;7577;45.226;5.798;2022-07-23T04:59:54;98137.77;;;27.25;48.49
14966;BME280;7577;45.226;5.798;2022-07-23T05:02:25;98151.09;;;27.18;47.63
14966;BME280;7577;45.226;5.798;2022-07-23T05:07:40;98153.59;;;27.41;48.44
14966;BME280;7577;45.226;5.798;2022-07-23T05:10:10;98154.98;;;27.34;47.74
14966;BME280;7577;45.226;5.798;2022-07-23T05:12:40;98153.94;;;27.25;48.03
14966;BME280;7577;45.226;5.798;2022-07-23T05:15:11;98170.83;;;27.12;48.81
14966;BME280;7577;45.226;5.798;2022-07-23T05:17:41;98181.90;;;27.22;48.85
14966;BME280;7577;45.226;5.798;2022-07-23T05:20:11;98187.93;;;27.31;49.46
14966;BME280;7577;45.226;5.798;2022-07-23T05:22:42;98193.08;;;27.22;49.95
14966;BME280;7577;45.226;5.798;2022-07-23T05:25:12;98189.09;;;27.23;50.90
14966;BME280;7577;45.226;5.798;2022-07-23T05:27:42;98179.92;;;27.29;52.84
14966;BME280;7577;45.226;5.798;2022-07-23T05:30:13;98175.32;;;26.93;56.41
14966;BME280;7577;45.226;5.798;2022-07-23T05:32:43;98162.95;;;26.40;60.92
14966;BME280;7577;45.226;5.798;2022-07-23T05:35:13;98168.53;;;26.17;63.17
14966;BME280;7577;45.226;5.798;2022-07-23T05:37:43;98167.92;;;25.41;69.49
14966;BME280;7577;45.226;5.798;2022-07-23T05:40:14;98173.60;;;25.68;67.10
14966;BME280;7577;45.226;5.798;2022-07-23T05:42:45;98153.32;;;25.71;70.09
14966;BME280;7577;45.226;5.798;2022-07-23T05:45:16;98137.52;;;25.65;68.75
14966;BME280;7577;45.226;5.798;2022-07-23T05:47:48;98109.80;;;25.63;70.27
14966;BME280;7577;45.226;5.798;2022-07-23T05:50:18;98063.41;;;25.28;72.14
14966;BME280;7577;45.226;5.798;2022-07-23T05:52:49;98037.48;;;25.07;72.32
14966;BME280;7577;45.226;5.798;2022-07-23T05:55:18;98050.98;;;24.89;76.73
14966;BME280;7577;45.226;5.798;2022-07-23T06:00:34;98076.31;;;24.38;83.50
14966;BME280;7577;45.226;5.798;2022-07-23T06:03:04;98073.82;;;24.29;84.30
14966;BME280;7577;45.226;5.798;2022-07-23T06:05:34;98062.73;;;24.20;87.07
14966;BME280;7577;45.226;5.798;2022-07-23T06:08:06;98062.73;;;24.33;86.40
14966;BME280;7577;45.226;5.798;2022-07-23T06:10:36;98063.42;;;24.39;88.67
14966;BME280;7577;45.226;5.798;2022-07-23T06:13:06;98066.30;;;24.59;89.71
14966;BME280;7577;45.226;5.798;2022-07-23T06:18:17;98057.27;;;24.66;88.04
14966;BME280;7577;45.226;5.798;2022-07-23T06:20:47;98065.63;;;24.66;88.67
14966;BME280;7577;45.226;5.798;2022-07-23T06:23:17;98073.00;;;24.68;89.19
14966;BME280;7577;45.226;5.798;2022-07-23T06:25:47;98088.30;;;24.97;87.17
14966;BME280;7577;45.226;5.798;2022-07-23T06:28:17;98092.03;;;24.92;89.56
14966;BME280;7577;45.226;5.798;2022-07-23T06:30:47;98094.55;;;25.04;87.69
14966;BME280;7577;45.226;5.798;2022-07-23T06:33:18;98094.46;;;24.67;88.28
14966;BME280;7577;45.226;5.798;2022-07-23T06:35:48;98094.42;;;24.64;90.35
14966;BME280;7577;45.226;5.798;2022-07-23T06:38:19;98096.45;;;24.96;87.17
14966;BME280;7577;45.226;5.798;2022-07-23T06:43:33;98107.33;;;25.38;85.92
14966;BME280;7577;45.226;5.798;2022-07-23T06:48:44;98107.22;;;26.88;77.59
14966;BME280;7577;45.226;5.798;2022-07-23T07:41:07;98143.70;;;36.92;35.01
14966;BME280;7577;45.226;5.798;2022-07-23T07:44:05;98152.70;;;38.15;32.18
14966;BME280;7577;45.226;5.798;2022-07-23T07:46:42;98147.49;;;38.58;31.95
14966;BME280;7577;45.226;5.798;2022-07-23T07:52:14;98149.99;;;36.00;34.04
14966;BME280;7577;45.226;5.798;2022-07-23T07:54:52;98145.36;;;36.18;35.22
14966;BME280;7577;45.226;5.798;2022-07-23T07:57:25;98152.02;;;37.81;32.64
14966;BME280;7577;45.226;5.798;2022-07-23T08:00:01;98152.47;;;37.15;32.64
14966;BME280;7577;45.226;5.798;2022-07-23T08:02:39;98149.58;;;38.27;31.98
14966;BME280;7577;45.226;5.798;2022-07-23T08:08:00;98145.01;;;40.78;28.83
14966;BME280;7577;45.226;5.798;2022-07-23T08:13:15;98150.02;;;40.14;28.87
14966;BME280;7577;45.226;5.798;2022-07-23T08:15:46;98155.42;;;40.25;27.90
14966;BME280;7577;45.226;5.798;2022-07-23T08:18:28;98155.44;;;40.53;27.11
14966;BME280;7577;45.226;5.798;2022-07-23T08:21:08;98155.36;;;40.71;27.69
14966;BME280;7577;45.226;5.798;2022-07-23T08:23:47;98152.50;;;39.93;29.53
14966;BME280;7577;45.226;5.798;2022-07-23T08:26:17;98152.47;;;41.04;27.29
14966;BME280;7577;45.226;5.798;2022-07-23T08:28:47;98152.64;;;39.94;27.97
14966;BME280;7577;45.226;5.798;2022-07-23T08:31:17;98151.00;;;38.22;30.77
14966;BME280;7577;45.226;5.798;2022-07-23T08:36:28;98154.60;;;36.14;34.28
14966;BME280;7577;45.226;5.798;2022-07-23T08:39:02;98154.44;;;37.27;33.37
14966;BME280;7577;45.226;5.798;2022-07-23T08:41:34;98156.66;;;38.48;31.58
14966;BME280;7577;45.226;5.798;2022-07-23T08:44:06;98154.46;;;39.46;30.35
14966;BME280;7577;45.226;5.798;2022-07-23T08:46:57;98159.30;;;39.91;28.91
14966;BME280;7577;45.226;5.798;2022-07-23T08:49:30;98146.39;;;40.09;28.74
14966;BME280;7577;45.226;5.798;2022-07-23T08:55:25;98152.07;;;39.40;29.59
14966;BME280;7577;45.226;5.798;2022-07-23T08:57:55;98155.82;;;39.91;28.72
14966;BME280;7577;45.226;5.798;2022-07-23T09:00:35;98164.03;;;39.98;28.86
14966;BME280;7577;45.226;5.798;2022-07-23T09:03:06;98156.89;;;39.98;27.85
14966;BME280;7577;45.226;5.798;2022-07-23T09:05:45;98153.56;;;38.78;30.89
14966;BME280;7577;45.226;5.798;2022-07-23T09:08:23;98153.66;;;38.17;30.48
14966;BME280;7577;45.226;5.798;2022-07-23T09:11:06;98144.84;;;38.73;30.01
14966;BME280;7577;45.226;5.798;2022-07-23T09:13:53;98148.16;;;38.22;31.26
14966;BME280;7577;45.226;5.798;2022-07-23T09:16:38;98159.58;;;37.36;31.50
14966;BME280;7577;45.226;5.798;2022-07-23T09:19:08;98160.16;;;38.22;31.41
14966;BME280;7577;45.226;5.798;2022-07-23T09:21:54;98157.58;;;36.90;33.48
14966;BME280;7577;45.226;5.798;2022-07-23T09:38:05;98149.83;;;36.74;32.34
14966;BME280;7577;45.226;5.798;2022-07-23T10:00:53;98136.52;;;36.41;33.69
14966;BME280;7577;45.226;5.798;2022-07-23T10:03:53;98139.17;;;35.90;34.35
14966;BME280;7577;45.226;5.798;2022-07-23T10:06:39;98137.09;;;36.11;33.64
14966;BME280;7577;45.226;5.798;2022-07-23T10:22:53;98121.97;;;34.47;36.59
14966;BME280;7577;45.226;5.798;2022-07-23T10:25:36;98123.82;;;34.45;36.91
14966;BME280;7577;45.226;5.798;2022-07-23T10:31:20;98122.02;;;34.19;36.99
14966;BME280;7577;45.226;5.798;2022-07-23T10:36:44;98122.72;;;34.79;36.63
14966;BME280;7577;45.226;5.798;2022-07-23T10:39:25;98119.54;;;34.69;35.39
14966;BME280;7577;45.226;5.798;2022-07-23T10:42:20;98120.89;;;34.41;36.87
14966;BME280;7577;45.226;5.798;2022-07-23T10:47:37;98115.73;;;34.04;36.78
14966;BME280;7577;45.226;5.798;2022-07-23T10:53:16;98120.23;;;34.01;37.36
14966;BME280;7577;45.226;5.798;2022-07-23T10:55:52;98114.75;;;34.18;36.16
14966;BME280;7577;45.226;5.798;2022-07-23T10:58:57;98111.40;;;34.07;36.80
14966;BME280;7577;45.226;5.798;2022-07-23T11:01:39;98113.53;;;34.19;36.68
14966;BME280;7577;45.226;5.798;2022-07-23T11:07:16;98110.45;;;34.54;36.15
14966;BME280;7577;45.226;5.798;2022-07-23T11:10:32;98108.77;;;34.64;36.10
14966;BME280;7577;45.226;5.798;2022-07-23T11:16:46;98107.56;;;33.54;38.35
14966;BME280;7577;45.226;5.798;2022-07-23T11:22:58;98110.21;;;33.53;38.41
14966;BME280;7577;45.226;5.798;2022-07-23T11:28:50;98108.94;;;33.46;37.73
14966;BME280;7577;45.226;5.798;2022-07-23T11:31:36;98103.44;;;33.39;39.11
14966;BME280;7577;45.226;5.798;2022-07-23T11:34:34;98102.25;;;32.97;38.04
14966;BME280;7577;45.226;5.798;2022-07-23T11:40:07;98099.47;;;33.05;37.76
14966;BME280;7577;45.226;5.798;2022-07-23T11:45:37;98091.19;;;33.45;35.32
14966;BME280;7577;45.226;5.798;2022-07-23T11:48:26;98085.88;;;33.95;34.27
14966;BME280;7577;45.226;5.798;2022-07-23T11:54:04;98079.87;;;34.33;34.91
14966;BME280;7577;45.226;5.798;2022-07-23T11:56:37;98080.68;;;34.49;34.62
14966;BME280;7577;45.226;5.798;2022-07-23T11:59:10;98077.69;;;34.77;34.37
14966;BME280;7577;45.226;5.798;2022-07-23T12:04:53;98073.95;;;34.51;35.36
14966;BME280;7577;45.226;5.798;2022-07-23T12:07:37;98068.59;;;34.77;34.83
14966;BME280;7577;45.226;5.798;2022-07-23T12:10:16;98068.39;;;34.48;33.80
14966;BME280;7577;45.226;5.798;2022-07-23T12:15:53;98062.81;;;34.97;34.54
14966;BME280;7577;45.226;5.798;2022-07-23T12:18:34;98069.92;;;35.09;34.00
14966;BME280;7577;45.226;5.798;2022-07-23T12:24:12;98057.10;;;34.76;33.50
14966;BME280;7577;45.226;5.798;2022-07-23T12:29:57;98056.61;;;34.09;34.72
14966;BME280;7577;45.226;5.798;2022-07-23T12:46:24;98053.61;;;34.48;36.28
14966;BME280;7577;45.226;5.798;2022-07-23T14:46:12;97972.40;;;34.41;35.00
14966;BME280;7577;45.226;5.798;2022-07-23T14:49:01;97975.66;;;34.47;35.17
14966;BME280;7577;45.226;5.798;2022-07-23T14:51:38;97976.47;;;34.24;35.29
14966;BME280;7577;45.226;5.798;2022-07-23T15:07:08;97980.32;;;33.93;35.40
14966;BME280;7577;45.226;5.798;2022-07-23T15:13:19;97978.48;;;33.43;37.09
14966;BME280;7577;45.226;5.798;2022-07-23T15:22:28;97974.42;;;33.08;37.40
14966;BME280;7577;45.226;5.798;2022-07-23T15:51:36;97994.28;;;32.85;38.87
14966;BME280;7577;45.226;5.798;2022-07-23T15:54:15;97987.70;;;32.92;38.84
14966;BME280;7577;45.226;5.798;2022-07-23T15:59:58;97984.19;;;32.96;38.69
14966;BME280;7577;45.226;5.798;2022-07-23T16:02:57;97980.59;;;33.03;39.20
14966;BME280;7577;45.226;5.798;2022-07-23T16:08:48;97978.68;;;32.89;38.83
14966;BME280;7577;45.226;5.798;2022-07-23T16:34:19;97964.13;;;32.71;38.98
14966;BME280;7577;45.226;5.798;2022-07-23T16:54:57;97991.52;;;32.51;39.05
14966;BME280;7577;45.226;5.798;2022-07-23T16:57:33;97997.31;;;32.44;38.60
14966;BME280;7577;45.226;5.798;2022-07-23T17:03:30;97989.05;;;32.33;39.55
14966;BME280;7577;45.226;5.798;2022-07-23T17:06:19;97998.19;;;32.29;39.81
14966;BME280;7577;45.226;5.798;2022-07-23T17:08:49;97999.08;;;32.23;39.79
14966;BME280;7577;45.226;5.798;2022-07-23T17:14:46;98001.65;;;32.25;39.44
14966;BME280;7577;45.226;5.798;2022-07-23T17:17:30;98006.80;;;32.19;39.70
14966;BME280;7577;45.226;5.798;2022-07-23T17:23:11;98006.92;;;32.00;40.42
14966;BME280;7577;45.226;5.798;2022-07-23T17:39:33;98017.05;;;31.71;40.48
14966;BME280;7577;45.226;5.798;2022-07-23T18:02:08;98037.13;;;31.17;42.35
14966;BME280;7577;45.226;5.798;2022-07-23T18:04:59;98037.03;;;31.09;42.53
14966;BME280;7577;45.226;5.798;2022-07-23T18:11:23;98042.73;;;30.87;42.71
14966;BME280;7577;45.226;5.798;2022-07-23T18:14:05;98047.14;;;30.88;42.81
14966;BME280;7577;45.226;5.798;2022-07-23T18:16:36;98051.54;;;30.89;42.64
14966;BME280;7577;45.226;5.798;2022-07-23T18:21:53;98060.88;;;30.60;42.97
14966;BME280;7577;45.226;5.798;2022-07-23T18:24:26;98059.20;;;30.70;42.62
14966;BME280;7577;45.226;5.798;2022-07-23T18:26:58;98066.60;;;30.72;42.54
14966;BME280;7577;45.226;5.798;2022-07-23T18:29:31;98065.02;;;30.71;46.86
14966;BME280;7577;45.226;5.798;2022-07-23T18:32:01;98069.89;;;30.63;47.24
14966;BME280;7577;45.226;5.798;2022-07-23T18:34:32;98067.14;;;30.56;43.99
14966;BME280;7577;45.226;5.798;2022-07-23T18:37:02;98067.38;;;30.54;46.83
14966;BME280;7577;45.226;5.798;2022-07-23T18:42:12;98077.07;;;30.49;43.86
14966;BME280;7577;45.226;5.798;2022-07-23T18:44:56;98077.00;;;30.34;45.96
14966;BME280;7577;45.226;5.798;2022-07-23T18:47:26;98090.28;;;30.30;47.15
14966;BME280;7577;45.226;5.798;2022-07-23T18:49:57;98086.34;;;30.24;48.66
14966;BME280;7577;45.226;5.798;2022-07-23T18:52:29;98091.95;;;30.24;49.41
14966;BME280;7577;45.226;5.798;2022-07-23T18:54:59;98089.81;;;30.17;50.38
14966;BME280;7577;45.226;5.798;2022-07-23T18:57:30;98091.31;;;30.03;50.04
14966;BME280;7577;45.226;5.798;2022-07-23T19:00:00;98095.53;;;29.74;49.87
14966;BME280;7577;45.226;5.798;2022-07-23T19:02:30;98092.94;;;29.71;49.16
14966;BME280;7577;45.226;5.798;2022-07-23T19:05:00;98101.23;;;29.53;50.83
14966;BME280;7577;45.226;5.798;2022-07-23T19:07:30;98100.27;;;29.48;50.06
14966;BME280;7577;45.226;5.798;2022-07-23T19:10:02;98104.20;;;29.25;51.56
14966;BME280;7577;45.226;5.798;2022-07-23T19:12:33;98107.61;;;29.28;49.50
14966;BME280;7577;45.226;5.798;2022-07-23T19:15:03;98107.02;;;29.18;49.73
14966;BME280;7577;45.226;5.798;2022-07-23T19:17:34;98113.91;;;28.92;50.57
14966;BME280;7577;45.226;5.798;2022-07-23T19:20:07;98120.38;;;28.72;51.49
14966;BME280;7577;45.226;5.798;2022-07-23T19:22:41;98120.60;;;28.59;52.93
14966;BME280;7577;45.226;5.798;2022-07-23T19:25:12;98121.41;;;28.52;53.10
14966;BME280;7577;45.226;5.798;2022-07-23T19:27:43;98124.99;;;28.53;52.42
14966;BME280;7577;45.226;5.798;2022-07-23T19:30:19;98129.80;;;28.56;52.95
14966;BME280;7577;45.226;5.798;2022-07-23T19:32:49;98137.00;;;28.64;51.58
14966;BME280;7577;45.226;5.798;2022-07-23T19:35:21;98142.61;;;28.57;51.88
14966;BME280;7577;45.226;5.798;2022-07-23T19:37:54;98143.02;;;28.24;52.78
14966;BME280;7577;45.226;5.798;2022-07-23T19:40:24;98148.37;;;27.94;52.60
14966;BME280;7577;45.226;5.798;2022-07-23T19:42:54;98148.37;;;27.94;52.60
14966;BME280;7577;45.226;5.798;2022-07-23T19:45:25;98158.98;;;27.98;54.62
14966;BME280;7577;45.226;5.798;2022-07-23T19:47:55;98166.59;;;28.08;55.21
14966;BME280;7577;45.226;5.798;2022-07-23T19:50:38;98167.58;;;27.99;54.55
14966;BME280;7577;45.226;5.798;2022-07-23T19:53:10;98164.80;;;28.07;54.98
14966;BME280;7577;45.226;5.798;2022-07-23T19:55:43;98173.59;;;28.08;54.53
14966;BME280;7577;45.226;5.798;2022-07-23T19:58:26;98175.61;;;28.08;54.04
14966;BME280;7577;45.226;5.798;2022-07-23T20:01:02;98178.18;;;28.07;54.43
14966;BME280;7577;45.226;5.798;2022-07-23T20:06:26;98188.55;;;27.85;54.56
14966;BME280;7577;45.226;5.798;2022-07-23T20:08:57;98197.96;;;27.90;54.83
14966;BME280;7577;45.226;5.798;2022-07-23T20:24:53;98209.44;;;27.61;55.20
14966;BME280;7577;45.226;5.798;2022-07-23T20:27:25;98219.58;;;27.49;54.75
14966;BME280;7577;45.226;5.798;2022-07-23T20:30:05;98224.16;;;27.47;56.18
14966;BME280;7577;45.226;5.798;2022-07-23T20:35:19;98226.50;;;27.31;54.83
14966;BME280;7577;45.226;5.798;2022-07-23T20:37:52;98228.62;;;27.21;55.03
14966;BME280;7577;45.226;5.798;2022-07-23T20:40:24;98230.84;;;27.25;54.76
14966;BME280;7577;45.226;5.798;2022-07-23T20:43:04;98239.57;;;27.17;54.37
14966;BME280;7577;45.226;5.798;2022-07-23T20:45:43;98239.19;;;27.18;53.87
14966;BME280;7577;45.226;5.798;2022-07-23T20:48:21;98240.44;;;26.97;55.01
14966;BME280;7577;45.226;5.798;2022-07-23T20:50:54;98238.98;;;26.90;54.16
14966;BME280;7577;45.226;5.798;2022-07-23T20:53:40;98246.43;;;26.99;55.05
14966;BME280;7577;45.226;5.798;2022-07-23T20:56:11;98247.07;;;27.06;54.83
14966;BME280;7577;45.226;5.798;2022-07-23T20:58:54;98251.44;;;27.00;54.69
14966;BME280;7577;45.226;5.798;2022-07-23T21:01:28;98250.44;;;27.02;54.43
14966;BME280;7577;45.226;5.798;2022-07-23T21:06:50;98248.97;;;27.18;53.91
14966;BME280;7577;45.226;5.798;2022-07-23T21:22:55;98254.89;;;27.10;54.84
14966;BME280;7577;45.226;5.798;2022-07-23T21:28:15;98249.04;;;27.02;54.64
14966;BME280;7577;45.226;5.798;2022-07-23T21:30:49;98252.82;;;26.96;55.25
14966;BME280;7577;45.226;5.798;2022-07-23T21:33:20;98256.58;;;26.94;55.23
14966;BME280;7577;45.226;5.798;2022-07-23T21:38:41;98259.39;;;26.71;55.14
14966;BME280;7577;45.226;5.798;2022-07-23T21:41:22;98263.25;;;26.76;55.58
14966;BME280;7577;45.226;5.798;2022-07-23T21:46:35;98276.09;;;26.60;55.87
14966;BME280;7577;45.226;5.798;2022-07-23T21:49:13;98275.07;;;26.42;56.44
14966;BME280;7577;45.226;5.798;2022-07-23T21:51:43;98275.91;;;26.46;55.83
14966;BME280;7577;45.226;5.798;2022-07-23T21:54:24;98273.19;;;26.33;56.96
14966;BME280;7577;45.226;5.798;2022-07-23T21:57:00;98271.92;;;26.07;57.08
14966;BME280;7577;45.226;5.798;2022-07-23T22:02:27;98274.30;;;25.89;56.80
14966;BME280;7577;45.226;5.798;2022-07-23T22:05:01;98273.82;;;25.83;58.56
14966;BME280;7577;45.226;5.798;2022-07-23T22:07:35;98273.05;;;25.99;57.35
14966;BME280;7577;45.226;5.798;2022-07-23T22:10:12;98280.45;;;25.88;57.14
14966;BME280;7577;45.226;5.798;2022-07-23T22:12:46;98277.20;;;25.66;57.02
14966;BME280;7577;45.226;5.798;2022-07-23T22:15:27;98280.45;;;25.55;58.20
14966;BME280;7577;45.226;5.798;2022-07-23T22:18:05;98284.16;;;25.66;58.25
14966;BME280;7577;45.226;5.798;2022-07-23T22:20:35;98285.73;;;25.64;57.64
14966;BME280;7577;45.226;5.798;2022-07-23T22:23:17;98291.01;;;25.72;57.54
14966;BME280;7577;45.226;5.798;2022-07-23T22:28:30;98280.30;;;26.07;57.67
14966;BME280;7577;45.226;5.798;2022-07-23T22:33:52;98290.26;;;25.75;58.67
14966;BME280;7577;45.226;5.798;2022-07-23T22:36:27;98303.15;;;25.70;58.67
14966;BME280;7577;45.226;5.798;2022-07-23T22:41:43;98308.23;;;25.48;59.29
14966;BME280;7577;45.226;5.798;2022-07-23T22:44:13;98311.41;;;25.34;59.51
14966;BME280;7577;45.226;5.798;2022-07-23T22:46:47;98305.46;;;25.35;59.70
14966;BME280;7577;45.226;5.798;2022-07-23T22:49:20;98312.73;;;25.17;59.15
14966;BME280;7577;45.226;5.798;2022-07-23T22:51:51;98308.06;;;25.12;59.59
14966;BME280;7577;45.226;5.798;2022-07-23T22:54:27;98307.86;;;25.24;60.13
14966;BME280;7577;45.226;5.798;2022-07-23T22:57:07;98304.38;;;25.17;60.32
14966;BME280;7577;45.226;5.798;2022-07-23T22:59:41;98300.94;;;25.14;59.89
14966;BME280;7577;45.226;5.798;2022-07-23T23:02:12;98305.60;;;25.07;59.81
14966;BME280;7577;45.226;5.798;2022-07-23T23:04:50;98300.19;;;25.17;59.10
14966;BME280;7577;45.226;5.798;2022-07-23T23:07:20;98304.02;;;25.32;57.91
14966;BME280;7577;45.226;5.798;2022-07-23T23:09:51;98302.63;;;25.32;59.04
14966;BME280;7577;45.226;5.798;2022-07-23T23:12:28;98299.70;;;25.12;59.43
14966;BME280;7577;45.226;5.798;2022-07-23T23:15:08;98301.75;;;25.15;59.94
14966;BME280;7577;45.226;5.798;2022-07-23T23:17:41;98297.84;;;25.32;59.16
14966;BME280;7577;45.226;5.798;2022-07-23T23:20:14;98305.25;;;25.34;58.73
14966;BME280;7577;45.226;5.798;2022-07-23T23:25:29;98297.66;;;24.96;59.75
14966;BME280;7577;45.226;5.798;2022-07-23T23:30:54;98295.16;;;24.65;61.41
14966;BME280;7577;45.226;5.798;2022-07-23T23:36:09;98296.95;;;24.44;61.49
14966;BME280;7577;45.226;5.798;2022-07-23T23:38:49;98298.34;;;24.44;61.98
14966;BME280;7577;45.226;5.798;2022-07-23T23:41:22;98298.09;;;24.62;62.23
14966;BME280;7577;45.226;5.798;2022-07-23T23:43:57;98298.06;;;24.72;61.17
14966;BME280;7577;45.226;5.798;2022-07-23T23:46:27;98297.91;;;24.74;61.47
